sensor_id;sensor_type;location;lat;lon;timestamp;temperature;humidity
12845;DHT22;68700;48.534;9.196;2024-03-08T00:00:02;2.30;1.00
12845;DHT22;68700;48.534;9.196;2024-03-08T00:03:30;2.20;1.00
12845;DHT22;68700;48.534;9.196;2024-03-08T00:06:53;2.20;1.00
12845;DHT22;68700;48.534;9.196;2024-03-08T00:10:16;1.90;1.00
12845;DHT22;68700;48.534;9.196;2024-03-08T00:13:38;1.90;26.70
12845;DHT22;68700;48.534;9.196;2024-03-08T00:17:00;2.10;57.50
12845;DHT22;68700;48.534;9.196;2024-03-08T00:20:23;2.20;18.50
12845;DHT22;68700;48.534;9.196;2024-03-08T00:23:45;2.10;1.00
12845;DHT22;68700;48.534;9.196;2024-03-08T00:27:09;2.00;1.00
12845;DHT22;68700;48.534;9.196;2024-03-08T00:30:31;1.80;1.00
12845;DHT22;68700;48.534;9.196;2024-03-08T00:33:53;1.70;3.30
12845;DHT22;68700;48.534;9.196;2024-03-08T00:37:15;1.70;32.70
12845;DHT22;68700;48.534;9.196;2024-03-08T00:40:37;1.60;34.00
12845;DHT22;68700;48.534;9.196;2024-03-08T00:44:00;1.70;56.70
12845;DHT22;68700;48.534;9.196;2024-03-08T00:47:24;1.70;64.60
12845;DHT22;68700;48.534;9.196;2024-03-08T00:50:45;1.70;60.40
12845;DHT22;68700;48.534;9.196;2024-03-08T00:54:07;1.60;34.60
12845;DHT22;68700;48.534;9.196;2024-03-08T00:57:29;1.50;34.20
12845;DHT22;68700;48.534;9.196;2024-03-08T01:00:53;1.50;50.90
12845;DHT22;68700;48.534;9.196;2024-03-08T01:04:15;1.50;41.20
12845;DHT22;68700;48.534;9.196;2024-03-08T01:07:37;1.60;61.20
12845;DHT22;68700;48.534;9.196;2024-03-08T01:10:59;1.60;64.20
12845;DHT22;68700;48.534;9.196;2024-03-08T01:14:21;1.50;11.50
12845;DHT22;68700;48.534;9.196;2024-03-08T01:17:45;1.20;5.00
12845;DHT22;68700;48.534;9.196;2024-03-08T01:21:07;1.20;40.60
12845;DHT22;68700;48.534;9.196;2024-03-08T01:24:28;1.10;71.30
12845;DHT22;68700;48.534;9.196;2024-03-08T01:27:50;1.40;99.90
12845;DHT22;68700;48.534;9.196;2024-03-08T01:31:14;1.10;30.60
12845;DHT22;68700;48.534;9.196;2024-03-08T01:34:37;1.00;56.70
12845;DHT22;68700;48.534;9.196;2024-03-08T01:37:59;1.00;99.90
12845;DHT22;68700;48.534;9.196;2024-03-08T01:41:21;0.80;99.90
12845;DHT22;68700;48.534;9.196;2024-03-08T01:44:43;1.00;99.90
12845;DHT22;68700;48.534;9.196;2024-03-08T01:48:05;1.00;99.90
12845;DHT22;68700;48.534;9.196;2024-03-08T01:51:29;1.00;99.90
12845;DHT22;68700;48.534;9.196;2024-03-08T01:54:51;1.40;99.90
12845;DHT22;68700;48.534;9.196;2024-03-08T01:58:14;1.50;36.90
12845;DHT22;68700;48.534;9.196;2024-03-08T02:01:36;1.50;1.00
12845;DHT22;68700;48.534;9.196;2024-03-08T02:04:58;1.50;1.00
12845;DHT22;68700;48.534;9.196;2024-03-08T02:08:23;1.30;1.00
12845;DHT22;68700;48.534;9.196;2024-03-08T02:11:45;1.20;1.00
12845;DHT22;68700;48.534;9.196;2024-03-08T02:15:08;1.10;1.00
12845;DHT22;68700;48.534;9.196;2024-03-08T02:18:31;0.90;7.00
12845;DHT22;68700;48.534;9.196;2024-03-08T02:21:57;0.70;19.70
12845;DHT22;68700;48.534;9.196;2024-03-08T02:25:20;0.70;97.20
12845;DHT22;68700;48.534;9.196;2024-03-08T02:28:42;0.60;87.70
12845;DHT22;68700;48.534;9.196;2024-03-08T02:32:04;0.40;91.90
12845;DHT22;68700;48.534;9.196;2024-03-08T02:35:26;0.30;99.90
12845;DHT22;68700;48.534;9.196;2024-03-08T02:38:49;0.10;99.90
12845;DHT22;68700;48.534;9.196;2024-03-08T02:42:11;0.10;99.90
12845;DHT22;68700;48.534;9.196;2024-03-08T02:45:33;0.00;99.90
12845;DHT22;68700;48.534;9.196;2024-03-08T02:48:55;0.00;99.90
12845;DHT22;68700;48.534;9.196;2024-03-08T02:52:17;-0.10;99.90
12845;DHT22;68700;48.534;9.196;2024-03-08T02:55:43;-0.10;99.90
12845;DHT22;68700;48.534;9.196;2024-03-08T02:59:04;-0.30;99.90
12845;DHT22;68700;48.534;9.196;2024-03-08T03:02:26;-0.20;99.90
12845;DHT22;68700;48.534;9.196;2024-03-08T03:05:48;-0.20;99.90
12845;DHT22;68700;48.534;9.196;2024-03-08T03:09:10;-0.20;99.90
12845;DHT22;68700;48.534;9.196;2024-03-08T03:12:33;-0.20;99.90
12845;DHT22;68700;48.534;9.196;2024-03-08T03:15:55;-0.30;99.90
12845;DHT22;68700;48.534;9.196;2024-03-08T03:19:18;-0.40;99.90
12845;DHT22;68700;48.534;9.196;2024-03-08T03:22:40;-0.60;99.90
12845;DHT22;68700;48.534;9.196;2024-03-08T03:26:02;-0.60;99.90
12845;DHT22;68700;48.534;9.196;2024-03-08T03:29:28;-0.60;99.90
12845;DHT22;68700;48.534;9.196;2024-03-08T03:32:50;-0.70;99.90
12845;DHT22;68700;48.534;9.196;2024-03-08T03:36:12;-0.90;99.90
12845;DHT22;68700;48.534;9.196;2024-03-08T03:39:34;-1.00;99.90
12845;DHT22;68700;48.534;9.196;2024-03-08T03:43:05;-0.90;99.90
12845;DHT22;68700;48.534;9.196;2024-03-08T03:46:29;-0.90;99.90
12845;DHT22;68700;48.534;9.196;2024-03-08T03:49:50;-0.80;99.90
12845;DHT22;68700;48.534;9.196;2024-03-08T03:53:14;-1.00;99.90
12845;DHT22;68700;48.534;9.196;2024-03-08T03:56:35;-1.10;99.90
12845;DHT22;68700;48.534;9.196;2024-03-08T03:59:57;-0.90;99.90
12845;DHT22;68700;48.534;9.196;2024-03-08T04:03:20;-0.90;99.90
12845;DHT22;68700;48.534;9.196;2024-03-08T04:06:42;-1.00;99.90
12845;DHT22;68700;48.534;9.196;2024-03-08T04:10:06;-1.10;99.90
12845;DHT22;68700;48.534;9.196;2024-03-08T04:13:28;-1.20;99.90
12845;DHT22;68700;48.534;9.196;2024-03-08T04:16:50;-1.30;99.90
12845;DHT22;68700;48.534;9.196;2024-03-08T04:20:14;-1.30;99.90
12845;DHT22;68700;48.534;9.196;2024-03-08T04:23:38;-1.20;99.90
12845;DHT22;68700;48.534;9.196;2024-03-08T04:27:00;-1.20;99.90
12845;DHT22;68700;48.534;9.196;2024-03-08T04:30:22;-1.30;99.90
12845;DHT22;68700;48.534;9.196;2024-03-08T04:33:44;-1.30;99.90
12845;DHT22;68700;48.534;9.196;2024-03-08T04:37:07;-1.30;99.90
12845;DHT22;68700;48.534;9.196;2024-03-08T04:40:31;-1.40;99.90
12845;DHT22;68700;48.534;9.196;2024-03-08T04:43:53;-1.40;99.90
12845;DHT22;68700;48.534;9.196;2024-03-08T04:47:18;-1.40;99.90
12845;DHT22;68700;48.534;9.196;2024-03-08T04:50:40;-1.40;99.90
12845;DHT22;68700;48.534;9.196;2024-03-08T04:54:04;-1.40;99.90
12845;DHT22;68700;48.534;9.196;2024-03-08T04:57:26;-1.40;99.90
12845;DHT22;68700;48.534;9.196;2024-03-08T05:00:48;-1.30;99.90
12845;DHT22;68700;48.534;9.196;2024-03-08T05:04:11;-1.30;99.90
12845;DHT22;68700;48.534;9.196;2024-03-08T05:07:35;-1.30;99.90
12845;DHT22;68700;48.534;9.196;2024-03-08T05:10:58;-1.40;99.90
12845;DHT22;68700;48.534;9.196;2024-03-08T05:14:23;-1.30;99.90
12845;DHT22;68700;48.534;9.196;2024-03-08T05:17:45;-1.20;99.90
12845;DHT22;68700;48.534;9.196;2024-03-08T05:21:15;-1.10;99.90
12845;DHT22;68700;48.534;9.196;2024-03-08T05:24:40;-1.10;99.90
12845;DHT22;68700;48.534;9.196;2024-03-08T05:28:37;-1.10;99.90
12845;DHT22;68700;48.534;9.196;2024-03-08T05:31:59;-0.90;99.90
12845;DHT22;68700;48.534;9.196;2024-03-08T05:35:23;-0.90;99.90
12845;DHT22;68700;48.534;9.196;2024-03-08T05:38:45;-0.90;99.90
12845;DHT22;68700;48.534;9.196;2024-03-08T05:42:07;-0.80;99.90
12845;DHT22;68700;48.534;9.196;2024-03-08T05:45:31;-0.70;99.90
12845;DHT22;68700;48.534;9.196;2024-03-08T05:48:52;-0.60;99.90
12845;DHT22;68700;48.534;9.196;2024-03-08T05:52:15;-0.60;99.90
12845;DHT22;68700;48.534;9.196;2024-03-08T05:55:37;-0.50;99.90
12845;DHT22;68700;48.534;9.196;2024-03-08T05:58:58;-0.40;99.90
12845;DHT22;68700;48.534;9.196;2024-03-08T06:02:22;-0.40;99.90
12845;DHT22;68700;48.534;9.196;2024-03-08T06:05:43;-0.30;99.90
12845;DHT22;68700;48.534;9.196;2024-03-08T06:09:05;-0.20;99.90
12845;DHT22;68700;48.534;9.196;2024-03-08T06:12:32;-0.20;99.90
12845;DHT22;68700;48.534;9.196;2024-03-08T06:15:59;-0.10;99.90
12845;DHT22;68700;48.534;9.196;2024-03-08T06:19:22;-0.10;99.90
12845;DHT22;68700;48.534;9.196;2024-03-08T06:22:44;-0.10;99.90
12845;DHT22;68700;48.534;9.196;2024-03-08T06:26:06;-0.10;99.90
12845;DHT22;68700;48.534;9.196;2024-03-08T06:29:28;0.00;99.90
12845;DHT22;68700;48.534;9.196;2024-03-08T06:32:50;0.20;99.90
12845;DHT22;68700;48.534;9.196;2024-03-08T06:36:13;0.20;99.90
12845;DHT22;68700;48.534;9.196;2024-03-08T06:39:39;0.20;99.90
12845;DHT22;68700;48.534;9.196;2024-03-08T06:43:01;0.30;99.90
12845;DHT22;68700;48.534;9.196;2024-03-08T06:46:26;0.40;99.90
12845;DHT22;68700;48.534;9.196;2024-03-08T06:49:48;0.60;99.90
12845;DHT22;68700;48.534;9.196;2024-03-08T06:53:12;0.70;99.90
12845;DHT22;68700;48.534;9.196;2024-03-08T06:56:34;0.90;99.90
12845;DHT22;68700;48.534;9.196;2024-03-08T06:59:55;1.10;99.90
12845;DHT22;68700;48.534;9.196;2024-03-08T07:03:18;1.20;99.90
12845;DHT22;68700;48.534;9.196;2024-03-08T07:06:39;1.40;99.90
12845;DHT22;68700;48.534;9.196;2024-03-08T07:10:04;1.40;99.90
12845;DHT22;68700;48.534;9.196;2024-03-08T07:13:26;1.60;99.90
12845;DHT22;68700;48.534;9.196;2024-03-08T07:16:48;1.80;99.90
12845;DHT22;68700;48.534;9.196;2024-03-08T07:20:11;1.90;99.90
12845;DHT22;68700;48.534;9.196;2024-03-08T07:23:34;2.00;99.90
12845;DHT22;68700;48.534;9.196;2024-03-08T07:27:16;2.00;99.90
12845;DHT22;68700;48.534;9.196;2024-03-08T07:30:39;2.10;99.90
12845;DHT22;68700;48.534;9.196;2024-03-08T07:34:28;2.30;99.90
12845;DHT22;68700;48.534;9.196;2024-03-08T07:37:52;2.40;99.90
12845;DHT22;68700;48.534;9.196;2024-03-08T07:41:15;2.60;99.90
12845;DHT22;68700;48.534;9.196;2024-03-08T07:44:39;2.80;99.90
12845;DHT22;68700;48.534;9.196;2024-03-08T07:48:01;2.90;93.60
12845;DHT22;68700;48.534;9.196;2024-03-08T07:51:23;3.00;25.10
12845;DHT22;68700;48.534;9.196;2024-03-08T07:54:45;3.10;1.00
12845;DHT22;68700;48.534;9.196;2024-03-08T07:58:07;3.30;1.00
12845;DHT22;68700;48.534;9.196;2024-03-08T08:01:32;3.60;1.00
12845;DHT22;68700;48.534;9.196;2024-03-08T08:04:54;3.80;1.00
12845;DHT22;68700;48.534;9.196;2024-03-08T08:08:19;3.70;1.00
12845;DHT22;68700;48.534;9.196;2024-03-08T08:11:41;3.90;1.00
12845;DHT22;68700;48.534;9.196;2024-03-08T08:15:05;3.80;1.00
12845;DHT22;68700;48.534;9.196;2024-03-08T08:18:28;4.20;1.00
12845;DHT22;68700;48.534;9.196;2024-03-08T08:21:50;4.60;1.00
12845;DHT22;68700;48.534;9.196;2024-03-08T08:25:12;4.60;1.00
12845;DHT22;68700;48.534;9.196;2024-03-08T08:28:36;4.60;1.00
12845;DHT22;68700;48.534;9.196;2024-03-08T08:31:58;4.80;1.00
12845;DHT22;68700;48.534;9.196;2024-03-08T08:35:22;4.80;1.00
12845;DHT22;68700;48.534;9.196;2024-03-08T08:38:44;4.80;1.00
12845;DHT22;68700;48.534;9.196;2024-03-08T08:42:06;4.90;1.00
12845;DHT22;68700;48.534;9.196;2024-03-08T08:45:29;5.10;1.00
12845;DHT22;68700;48.534;9.196;2024-03-08T08:48:51;5.70;1.00
12845;DHT22;68700;48.534;9.196;2024-03-08T08:52:14;5.80;1.00
12845;DHT22;68700;48.534;9.196;2024-03-08T08:55:39;5.60;1.00
12845;DHT22;68700;48.534;9.196;2024-03-08T08:59:01;5.60;1.00
12845;DHT22;68700;48.534;9.196;2024-03-08T09:02:24;5.40;1.00
12845;DHT22;68700;48.534;9.196;2024-03-08T09:05:46;5.30;1.00
12845;DHT22;68700;48.534;9.196;2024-03-08T09:09:09;5.60;1.00
12845;DHT22;68700;48.534;9.196;2024-03-08T09:12:31;5.40;1.00
12845;DHT22;68700;48.534;9.196;2024-03-08T09:15:54;5.20;1.00
12845;DHT22;68700;48.534;9.196;2024-03-08T09:19:15;5.50;1.00
12845;DHT22;68700;48.534;9.196;2024-03-08T09:22:37;5.50;1.00
12845;DHT22;68700;48.534;9.196;2024-03-08T09:26:02;5.60;1.00
12845;DHT22;68700;48.534;9.196;2024-03-08T09:29:26;5.80;1.00
12845;DHT22;68700;48.534;9.196;2024-03-08T09:32:48;6.10;1.00
12845;DHT22;68700;48.534;9.196;2024-03-08T09:36:11;6.30;1.00
12845;DHT22;68700;48.534;9.196;2024-03-08T09:39:34;5.90;1.00
12845;DHT22;68700;48.534;9.196;2024-03-08T09:42:57;6.30;1.00
12845;DHT22;68700;48.534;9.196;2024-03-08T09:46:19;6.60;1.00
12845;DHT22;68700;48.534;9.196;2024-03-08T09:49:43;7.00;1.00
12845;DHT22;68700;48.534;9.196;2024-03-08T09:53:05;7.00;1.00
12845;DHT22;68700;48.534;9.196;2024-03-08T09:56:28;6.80;1.00
12845;DHT22;68700;48.534;9.196;2024-03-08T09:59:52;7.10;1.00
12845;DHT22;68700;48.534;9.196;2024-03-08T10:03:14;7.80;1.00
12845;DHT22;68700;48.534;9.196;2024-03-08T10:06:36;8.50;1.00
12845;DHT22;68700;48.534;9.196;2024-03-08T10:09:58;9.70;99.90
12845;DHT22;68700;48.534;9.196;2024-03-08T10:13:19;10.70;99.90
12845;DHT22;68700;48.534;9.196;2024-03-08T10:16:45;11.50;99.90
12845;DHT22;68700;48.534;9.196;2024-03-08T10:20:13;11.90;99.90
12845;DHT22;68700;48.534;9.196;2024-03-08T10:23:36;10.90;99.90
12845;DHT22;68700;48.534;9.196;2024-03-08T10:26:59;10.50;99.90
12845;DHT22;68700;48.534;9.196;2024-03-08T10:30:23;10.30;99.90
12845;DHT22;68700;48.534;9.196;2024-03-08T10:33:46;10.50;99.90
12845;DHT22;68700;48.534;9.196;2024-03-08T10:37:14;11.00;99.90
12845;DHT22;68700;48.534;9.196;2024-03-08T10:40:38;13.10;99.90
12845;DHT22;68700;48.534;9.196;2024-03-08T10:44:13;13.40;99.90
12845;DHT22;68700;48.534;9.196;2024-03-08T10:47:41;11.50;99.90
12845;DHT22;68700;48.534;9.196;2024-03-08T10:51:05;10.50;99.90
12845;DHT22;68700;48.534;9.196;2024-03-08T10:54:29;12.10;99.90
12845;DHT22;68700;48.534;9.196;2024-03-08T10:57:52;12.70;99.90
12845;DHT22;68700;48.534;9.196;2024-03-08T11:01:15;13.40;99.90
12845;DHT22;68700;48.534;9.196;2024-03-08T11:04:37;13.80;99.90
12845;DHT22;68700;48.534;9.196;2024-03-08T11:08:00;12.80;99.90
12845;DHT22;68700;48.534;9.196;2024-03-08T11:11:27;12.80;99.90
12845;DHT22;68700;48.534;9.196;2024-03-08T11:14:52;11.70;99.90
12845;DHT22;68700;48.534;9.196;2024-03-08T11:18:14;10.80;99.90
12845;DHT22;68700;48.534;9.196;2024-03-08T11:21:36;11.20;99.90
12845;DHT22;68700;48.534;9.196;2024-03-08T11:25:02;10.70;99.90
12845;DHT22;68700;48.534;9.196;2024-03-08T11:28:31;10.80;99.90
12845;DHT22;68700;48.534;9.196;2024-03-08T11:32:03;10.80;99.90
12845;DHT22;68700;48.534;9.196;2024-03-08T11:35:25;11.10;99.90
12845;DHT22;68700;48.534;9.196;2024-03-08T11:38:48;11.90;99.90
12845;DHT22;68700;48.534;9.196;2024-03-08T11:42:11;12.80;99.90
12845;DHT22;68700;48.534;9.196;2024-03-08T11:45:34;13.20;99.90
12845;DHT22;68700;48.534;9.196;2024-03-08T11:48:57;14.40;99.90
12845;DHT22;68700;48.534;9.196;2024-03-08T11:52:18;15.00;99.90
12845;DHT22;68700;48.534;9.196;2024-03-08T11:55:41;14.30;99.90
12845;DHT22;68700;48.534;9.196;2024-03-08T11:59:04;15.00;99.90
12845;DHT22;68700;48.534;9.196;2024-03-08T12:02:26;16.10;99.90
12845;DHT22;68700;48.534;9.196;2024-03-08T12:05:57;16.60;99.90
12845;DHT22;68700;48.534;9.196;2024-03-08T12:09:20;16.90;99.90
12845;DHT22;68700;48.534;9.196;2024-03-08T12:12:43;16.70;99.90
12845;DHT22;68700;48.534;9.196;2024-03-08T12:16:06;16.20;99.90
12845;DHT22;68700;48.534;9.196;2024-03-08T12:19:28;16.80;99.90
12845;DHT22;68700;48.534;9.196;2024-03-08T12:22:51;16.60;99.90
12845;DHT22;68700;48.534;9.196;2024-03-08T12:26:14;17.30;99.90
12845;DHT22;68700;48.534;9.196;2024-03-08T12:29:38;17.80;99.90
12845;DHT22;68700;48.534;9.196;2024-03-08T12:33:01;18.00;99.90
12845;DHT22;68700;48.534;9.196;2024-03-08T12:36:25;17.80;99.90
12845;DHT22;68700;48.534;9.196;2024-03-08T12:39:56;17.80;99.90
12845;DHT22;68700;48.534;9.196;2024-03-08T12:43:19;18.10;99.90
12845;DHT22;68700;48.534;9.196;2024-03-08T12:46:41;18.60;99.90
12845;DHT22;68700;48.534;9.196;2024-03-08T12:50:07;18.10;99.90
12845;DHT22;68700;48.534;9.196;2024-03-08T12:53:29;17.90;99.90
12845;DHT22;68700;48.534;9.196;2024-03-08T12:56:51;18.70;99.90
12845;DHT22;68700;48.534;9.196;2024-03-08T13:00:14;16.60;99.90
12845;DHT22;68700;48.534;9.196;2024-03-08T13:03:39;17.50;99.90
12845;DHT22;68700;48.534;9.196;2024-03-08T13:07:03;16.60;99.90
12845;DHT22;68700;48.534;9.196;2024-03-08T13:10:24;16.70;99.90
12845;DHT22;68700;48.534;9.196;2024-03-08T13:13:46;19.20;99.90
12845;DHT22;68700;48.534;9.196;2024-03-08T13:17:11;18.40;99.90
12845;DHT22;68700;48.534;9.196;2024-03-08T13:20:39;17.90;99.90
12845;DHT22;68700;48.534;9.196;2024-03-08T13:24:11;18.50;99.90
12845;DHT22;68700;48.534;9.196;2024-03-08T13:27:35;18.20;99.90
12845;DHT22;68700;48.534;9.196;2024-03-08T13:30:57;17.70;99.90
12845;DHT22;68700;48.534;9.196;2024-03-08T13:34:19;18.10;99.90
12845;DHT22;68700;48.534;9.196;2024-03-08T13:37:48;18.60;99.90
12845;DHT22;68700;48.534;9.196;2024-03-08T13:41:12;18.20;99.90
12845;DHT22;68700;48.534;9.196;2024-03-08T13:44:35;18.60;99.90
12845;DHT22;68700;48.534;9.196;2024-03-08T13:47:57;18.80;99.90
12845;DHT22;68700;48.534;9.196;2024-03-08T13:51:19;18.60;99.90
12845;DHT22;68700;48.534;9.196;2024-03-08T13:54:43;18.30;99.90
12845;DHT22;68700;48.534;9.196;2024-03-08T13:58:06;18.60;99.90
12845;DHT22;68700;48.534;9.196;2024-03-08T14:01:30;17.80;99.90
12845;DHT22;68700;48.534;9.196;2024-03-08T14:04:51;18.30;99.90
12845;DHT22;68700;48.534;9.196;2024-03-08T14:08:13;18.00;99.90
12845;DHT22;68700;48.534;9.196;2024-03-08T14:11:36;18.10;99.90
12845;DHT22;68700;48.534;9.196;2024-03-08T14:14:59;17.90;99.90
12845;DHT22;68700;48.534;9.196;2024-03-08T14:18:21;18.20;99.90
12845;DHT22;68700;48.534;9.196;2024-03-08T14:21:43;18.40;99.90
12845;DHT22;68700;48.534;9.196;2024-03-08T14:25:06;18.00;99.90
12845;DHT22;68700;48.534;9.196;2024-03-08T14:28:37;18.80;99.90
12845;DHT22;68700;48.534;9.196;2024-03-08T14:32:00;19.50;99.90
12845;DHT22;68700;48.534;9.196;2024-03-08T14:35:24;17.90;99.90
12845;DHT22;68700;48.534;9.196;2024-03-08T14:38:45;18.60;99.90
12845;DHT22;68700;48.534;9.196;2024-03-08T14:42:08;18.10;99.90
12845;DHT22;68700;48.534;9.196;2024-03-08T14:45:33;18.00;99.90
12845;DHT22;68700;48.534;9.196;2024-03-08T14:48:57;17.90;99.90
12845;DHT22;68700;48.534;9.196;2024-03-08T14:52:19;19.00;99.90
12845;DHT22;68700;48.534;9.196;2024-03-08T14:55:49;18.90;99.90
12845;DHT22;68700;48.534;9.196;2024-03-08T14:59:11;19.90;99.90
12845;DHT22;68700;48.534;9.196;2024-03-08T15:02:33;18.60;99.90
12845;DHT22;68700;48.534;9.196;2024-03-08T15:05:58;19.20;99.90
12845;DHT22;68700;48.534;9.196;2024-03-08T15:09:20;19.90;99.90
12845;DHT22;68700;48.534;9.196;2024-03-08T15:12:45;18.80;99.90
12845;DHT22;68700;48.534;9.196;2024-03-08T15:16:08;19.30;99.90
12845;DHT22;68700;48.534;9.196;2024-03-08T15:19:35;19.00;99.90
12845;DHT22;68700;48.534;9.196;2024-03-08T15:23:01;19.40;99.90
12845;DHT22;68700;48.534;9.196;2024-03-08T15:26:24;19.00;99.90
12845;DHT22;68700;48.534;9.196;2024-03-08T15:29:46;19.20;99.90
12845;DHT22;68700;48.534;9.196;2024-03-08T15:33:12;18.90;99.90
12845;DHT22;68700;48.534;9.196;2024-03-08T15:36:35;18.50;99.90
12845;DHT22;68700;48.534;9.196;2024-03-08T15:39:59;18.70;99.90
12845;DHT22;68700;48.534;9.196;2024-03-08T15:43:20;18.60;99.90
12845;DHT22;68700;48.534;9.196;2024-03-08T15:46:42;18.20;99.90
12845;DHT22;68700;48.534;9.196;2024-03-08T15:50:05;18.00;99.90
12845;DHT22;68700;48.534;9.196;2024-03-08T15:53:32;18.30;99.90
12845;DHT22;68700;48.534;9.196;2024-03-08T15:56:56;18.10;99.90
12845;DHT22;68700;48.534;9.196;2024-03-08T16:00:19;18.30;99.90
12845;DHT22;68700;48.534;9.196;2024-03-08T16:03:53;17.90;99.90
12845;DHT22;68700;48.534;9.196;2024-03-08T16:07:18;17.50;99.90
12845;DHT22;68700;48.534;9.196;2024-03-08T16:10:41;16.80;99.90
12845;DHT22;68700;48.534;9.196;2024-03-08T16:14:07;16.20;99.90
12845;DHT22;68700;48.534;9.196;2024-03-08T16:17:31;15.60;99.90
12845;DHT22;68700;48.534;9.196;2024-03-08T16:20:54;15.40;99.90
12845;DHT22;68700;48.534;9.196;2024-03-08T16:24:16;15.40;99.90
12845;DHT22;68700;48.534;9.196;2024-03-08T16:27:39;15.50;99.90
12845;DHT22;68700;48.534;9.196;2024-03-08T16:31:03;15.50;99.90
12845;DHT22;68700;48.534;9.196;2024-03-08T16:34:25;14.90;99.90
12845;DHT22;68700;48.534;9.196;2024-03-08T16:37:47;13.80;99.90
12845;DHT22;68700;48.534;9.196;2024-03-08T16:41:12;12.60;99.90
12845;DHT22;68700;48.534;9.196;2024-03-08T16:44:34;11.60;99.90
12845;DHT22;68700;48.534;9.196;2024-03-08T16:47:57;11.10;99.90
12845;DHT22;68700;48.534;9.196;2024-03-08T16:51:19;10.60;99.90
12845;DHT22;68700;48.534;9.196;2024-03-08T16:54:41;10.20;99.90
12845;DHT22;68700;48.534;9.196;2024-03-08T16:58:03;9.90;99.90
12845;DHT22;68700;48.534;9.196;2024-03-08T17:01:25;9.70;99.90
12845;DHT22;68700;48.534;9.196;2024-03-08T17:04:50;9.50;99.90
12845;DHT22;68700;48.534;9.196;2024-03-08T17:08:13;9.40;99.90
12845;DHT22;68700;48.534;9.196;2024-03-08T17:11:35;9.20;99.90
12845;DHT22;68700;48.534;9.196;2024-03-08T17:14:57;8.90;99.90
12845;DHT22;68700;48.534;9.196;2024-03-08T17:18:20;8.80;99.90
12845;DHT22;68700;48.534;9.196;2024-03-08T17:21:44;8.50;99.90
12845;DHT22;68700;48.534;9.196;2024-03-08T17:25:07;8.40;99.90
12845;DHT22;68700;48.534;9.196;2024-03-08T17:28:34;8.20;1.00
12845;DHT22;68700;48.534;9.196;2024-03-08T17:31:58;8.10;1.00
12845;DHT22;68700;48.534;9.196;2024-03-08T17:35:20;7.80;1.00
12845;DHT22;68700;48.534;9.196;2024-03-08T17:38:43;7.70;1.00
12845;DHT22;68700;48.534;9.196;2024-03-08T17:42:06;7.60;1.00
12845;DHT22;68700;48.534;9.196;2024-03-08T17:45:29;7.60;1.00
12845;DHT22;68700;48.534;9.196;2024-03-08T17:48:52;7.70;1.00
12845;DHT22;68700;48.534;9.196;2024-03-08T17:52:15;7.80;1.00
12845;DHT22;68700;48.534;9.196;2024-03-08T17:55:38;8.00;1.00
12845;DHT22;68700;48.534;9.196;2024-03-08T17:59:02;7.90;1.00
12845;DHT22;68700;48.534;9.196;2024-03-08T18:02:27;7.80;1.00
12845;DHT22;68700;48.534;9.196;2024-03-08T18:05:50;7.80;1.00
12845;DHT22;68700;48.534;9.196;2024-03-08T18:09:12;7.70;1.00
12845;DHT22;68700;48.534;9.196;2024-03-08T18:12:35;7.70;99.90
12845;DHT22;68700;48.534;9.196;2024-03-08T18:15:57;7.60;1.00
12845;DHT22;68700;48.534;9.196;2024-03-08T18:19:18;7.60;1.00
12845;DHT22;68700;48.534;9.196;2024-03-08T18:22:40;7.60;1.00
12845;DHT22;68700;48.534;9.196;2024-03-08T18:26:04;7.60;1.00
12845;DHT22;68700;48.534;9.196;2024-03-08T18:29:29;7.50;99.90
12845;DHT22;68700;48.534;9.196;2024-03-08T18:32:51;7.60;99.90
12845;DHT22;68700;48.534;9.196;2024-03-08T18:36:13;7.70;99.90
12845;DHT22;68700;48.534;9.196;2024-03-08T18:39:35;7.70;99.90
12845;DHT22;68700;48.534;9.196;2024-03-08T18:42:58;7.60;99.90
12845;DHT22;68700;48.534;9.196;2024-03-08T18:46:22;7.70;99.90
12845;DHT22;68700;48.534;9.196;2024-03-08T18:49:44;7.60;99.90
12845;DHT22;68700;48.534;9.196;2024-03-08T18:53:08;7.50;99.90
12845;DHT22;68700;48.534;9.196;2024-03-08T18:56:30;7.50;99.90
12845;DHT22;68700;48.534;9.196;2024-03-08T18:59:52;7.40;99.90
12845;DHT22;68700;48.534;9.196;2024-03-08T19:03:15;7.30;99.90
12845;DHT22;68700;48.534;9.196;2024-03-08T19:06:37;7.20;99.90
12845;DHT22;68700;48.534;9.196;2024-03-08T19:09:59;7.00;99.90
12845;DHT22;68700;48.534;9.196;2024-03-08T19:13:26;7.00;99.90
12845;DHT22;68700;48.534;9.196;2024-03-08T19:16:48;6.80;99.90
12845;DHT22;68700;48.534;9.196;2024-03-08T19:20:13;6.60;99.90
12845;DHT22;68700;48.534;9.196;2024-03-08T19:23:38;6.30;1.00
12845;DHT22;68700;48.534;9.196;2024-03-08T19:27:00;6.10;99.90
12845;DHT22;68700;48.534;9.196;2024-03-08T19:30:23;5.90;1.00
12845;DHT22;68700;48.534;9.196;2024-03-08T19:33:47;5.70;1.00
12845;DHT22;68700;48.534;9.196;2024-03-08T19:37:11;5.60;1.00
12845;DHT22;68700;48.534;9.196;2024-03-08T19:40:34;5.40;1.00
12845;DHT22;68700;48.534;9.196;2024-03-08T19:43:57;5.40;1.00
12845;DHT22;68700;48.534;9.196;2024-03-08T19:47:19;5.30;1.00
12845;DHT22;68700;48.534;9.196;2024-03-08T19:50:41;5.20;1.00
12845;DHT22;68700;48.534;9.196;2024-03-08T19:54:05;5.10;1.00
12845;DHT22;68700;48.534;9.196;2024-03-08T19:57:27;5.10;1.00
12845;DHT22;68700;48.534;9.196;2024-03-08T20:00:50;5.10;1.00
12845;DHT22;68700;48.534;9.196;2024-03-08T20:04:12;5.00;1.00
12845;DHT22;68700;48.534;9.196;2024-03-08T20:07:34;5.00;1.00
12845;DHT22;68700;48.534;9.196;2024-03-08T20:10:58;5.20;1.00
12845;DHT22;68700;48.534;9.196;2024-03-08T20:14:23;5.00;1.00
12845;DHT22;68700;48.534;9.196;2024-03-08T20:17:48;5.00;1.00
12845;DHT22;68700;48.534;9.196;2024-03-08T20:21:10;4.80;1.00
12845;DHT22;68700;48.534;9.196;2024-03-08T20:24:32;4.70;1.00
12845;DHT22;68700;48.534;9.196;2024-03-08T20:27:56;4.80;1.00
12845;DHT22;68700;48.534;9.196;2024-03-08T20:31:19;4.70;1.00
12845;DHT22;68700;48.534;9.196;2024-03-08T20:34:41;4.80;1.00
12845;DHT22;68700;48.534;9.196;2024-03-08T20:38:04;4.90;1.00
12845;DHT22;68700;48.534;9.196;2024-03-08T20:41:26;5.00;1.00
12845;DHT22;68700;48.534;9.196;2024-03-08T20:44:49;5.20;1.00
12845;DHT22;68700;48.534;9.196;2024-03-08T20:48:11;5.30;1.00
12845;DHT22;68700;48.534;9.196;2024-03-08T20:51:34;5.40;1.00
12845;DHT22;68700;48.534;9.196;2024-03-08T20:54:56;5.50;1.00
12845;DHT22;68700;48.534;9.196;2024-03-08T20:58:19;5.60;1.00
12845;DHT22;68700;48.534;9.196;2024-03-08T21:01:43;5.40;1.00
12845;DHT22;68700;48.534;9.196;2024-03-08T21:05:05;5.50;1.00
12845;DHT22;68700;48.534;9.196;2024-03-08T21:08:27;5.50;1.00
12845;DHT22;68700;48.534;9.196;2024-03-08T21:11:49;5.50;1.00
12845;DHT22;68700;48.534;9.196;2024-03-08T21:15:11;5.50;1.00
12845;DHT22;68700;48.534;9.196;2024-03-08T21:18:36;5.40;1.00
12845;DHT22;68700;48.534;9.196;2024-03-08T21:21:59;5.30;1.00
12845;DHT22;68700;48.534;9.196;2024-03-08T21:25:21;5.20;1.00
12845;DHT22;68700;48.534;9.196;2024-03-08T21:28:44;5.10;1.00
12845;DHT22;68700;48.534;9.196;2024-03-08T21:32:06;4.80;1.00
12845;DHT22;68700;48.534;9.196;2024-03-08T21:35:29;4.60;1.00
12845;DHT22;68700;48.534;9.196;2024-03-08T21:38:53;4.50;1.00